Time;durP1;ratioP1;P1;durP2;ratioP2;P2;SDS_P1;SDS_P2;PMS_P1;PMS_P2;Temp;Humidity;BMP_temperature;BMP_pressure;BME280_temperature;BME280_humidity;BME280_pressure;Samples;Min_cycle;Max_cycle;Signal;HPM_P1;HPM_P2
2021/01/16 00:06:00;;;;;;;14.30;7.15;;;;;;;;;;4337110;28;20692;-58
2021/01/16 00:08:27;;;;;;;12.88;7.10;;;;;;;;;;4218823;34;20120;-58
2021/01/16 00:10:57;;;;;;;8.82;7.47;;;;;;;;;;4207238;34;20126;-58
2021/01/16 00:13:27;;;;;;;10.45;6.95;;;;;;;;;;4204870;34;20197;-58
2021/01/16 00:15:53;;;;;;;13.93;7.70;;;;;;;;;;4204744;34;20526;-59
2021/01/16 00:18:21;;;;;;;15.32;7.62;;;;;;;;;;4204770;34;20593;-58
2021/01/16 00:20:48;;;;;;;10.00;7.18;;;;;;;;;;4204509;34;20129;-58
2021/01/16 00:23:14;;;;;;;11.70;7.65;;;;;;;;;;4192211;34;20110;-57
2021/01/16 00:25:41;;;;;;;8.85;6.82;;;;;;;;;;4204776;34;20112;-58
2021/01/16 00:28:07;;;;;;;9.73;6.82;;;;;;;;;;4204660;34;20098;-58
2021/01/16 00:30:34;;;;;;;10.57;7.53;;;;;;;;;;4204517;34;20473;-57
2021/01/16 00:33:00;;;;;;;11.02;7.37;;;;;;;;;;4204566;34;20212;-58
2021/01/16 00:35:27;;;;;;;11.75;7.25;;;;;;;;;;4204712;34;20087;-58
2021/01/16 00:37:53;;;;;;;10.32;6.93;;;;;;;;;;4191917;34;20106;-58
2021/01/16 00:40:23;;;;;;;11.18;7.37;;;;;;;;;;4204480;34;20104;-57
2021/01/16 00:42:50;;;;;;;13.32;7.47;;;;;;;;;;4204405;34;20538;-58
2021/01/16 00:45:16;;;;;;;13.93;7.40;;;;;;;;;;4204353;34;20442;-57
2021/01/16 00:47:43;;;;;;;11.93;6.78;;;;;;;;;;4204491;34;20140;-58
2021/01/16 00:50:10;;;;;;;12.07;6.93;;;;;;;;;;4204432;34;20128;-59
2021/01/16 00:52:36;;;;;;;10.40;6.87;;;;;;;;;;4204380;34;20174;-59
2021/01/16 00:55:04;;;;;;;7.22;6.07;;;;;;;;;;4204597;34;20110;-56
2021/01/16 00:57:30;;;;;;;9.93;6.90;;;;;;;;;;4204307;34;20137;-60
2021/01/16 00:59:56;;;;;;;10.32;6.72;;;;;;;;;;4204108;34;20089;-58
2021/01/16 01:02:22;;;;;;;8.18;6.22;;;;;;;;;;4204448;34;20541;-58
2021/01/16 01:04:48;;;;;;;9.65;6.37;;;;;;;;;;4204009;34;20141;-59
2021/01/16 01:07:14;;;;;;;10.93;6.55;;;;;;;;;;4204231;34;20209;-58
2021/01/16 01:09:41;;;;;;;13.70;6.75;;;;;;;;;;4204349;34;20177;-59
2021/01/16 01:12:07;;;;;;;10.07;6.47;;;;;;;;;;4204192;34;20435;-59
2021/01/16 01:14:34;;;;;;;11.15;6.82;;;;;;;;;;4204162;34;20190;-58
2021/01/16 01:16:59;;;;;;;9.35;6.80;;;;;;;;;;4204135;34;20094;-59
2021/01/16 01:19:25;;;;;;;10.75;6.62;;;;;;;;;;4204040;34;20213;-58
2021/01/16 01:21:51;;;;;;;9.73;7.20;;;;;;;;;;4204043;34;20121;-59
2021/01/16 01:24:17;;;;;;;10.32;6.82;;;;;;;;;;4203747;34;20122;-60
2021/01/16 01:26:43;;;;;;;10.85;7.18;;;;;;;;;;4203927;34;20206;-57
2021/01/16 01:29:09;;;;;;;12.37;7.10;;;;;;;;;;4203954;34;20120;-59
2021/01/16 01:31:38;;;;;;;11.65;6.75;;;;;;;;;;4205000;34;20467;-58
2021/01/16 01:34:04;;;;;;;14.98;7.43;;;;;;;;;;4206293;34;20122;-58
2021/01/16 01:36:30;;;;;;;10.10;6.60;;;;;;;;;;4206157;34;20114;-59
2021/01/16 01:38:56;;;;;;;10.85;7.62;;;;;;;;;;4205979;34;20132;-57
2021/01/16 01:41:22;;;;;;;10.30;7.60;;;;;;;;;;4206165;34;20466;-58
2021/01/16 01:43:48;;;;;;;11.18;5.93;;;;;;;;;;4205929;34;20137;-59
2021/01/16 01:46:15;;;;;;;10.02;6.95;;;;;;;;;;4205991;34;20229;-58
2021/01/16 01:48:41;;;;;;;13.35;6.60;;;;;;;;;;4193202;34;20113;-58
2021/01/16 01:51:08;;;;;;;9.65;6.97;;;;;;;;;;4206175;34;20189;-59
2021/01/16 01:53:34;;;;;;;12.10;7.87;;;;;;;;;;4205786;34;20102;-58
2021/01/16 01:56:00;;;;;;;10.75;6.72;;;;;;;;;;4205688;34;20516;-58
2021/01/16 01:58:26;;;;;;;12.75;6.70;;;;;;;;;;4205965;34;20117;-58
2021/01/16 02:00:52;;;;;;;10.73;6.85;;;;;;;;;;4181585;34;20202;-59
2021/01/16 02:03:20;;;;;;;13.05;6.93;;;;;;;;;;4205847;34;20126;-59
2021/01/16 02:05:46;;;;;;;10.15;6.72;;;;;;;;;;4205601;34;20172;-59
2021/01/16 02:08:12;;;;;;;9.40;7.20;;;;;;;;;;4192932;34;20545;-58
2021/01/16 02:10:38;;;;;;;11.43;7.35;;;;;;;;;;4205957;34;20540;-59
2021/01/16 02:13:04;;;;;;;14.10;7.30;;;;;;;;;;4205919;34;20125;-59
2021/01/16 02:15:39;;;;;;;12.25;7.18;;;;;;;;;;4205548;34;20148;-59
2021/01/16 02:18:16;;;;;;;12.13;7.20;;;;;;;;;;4192791;34;20140;-58
2021/01/16 02:20:42;;;;;;;10.93;7.07;;;;;;;;;;4205738;34;20086;-59
2021/01/16 02:23:11;;;;;;;9.80;7.12;;;;;;;;;;4205615;34;20120;-59
2021/01/16 02:25:40;;;;;;;8.52;6.72;;;;;;;;;;4205509;34;20141;-59
2021/01/16 02:28:09;;;;;;;10.95;7.10;;;;;;;;;;4205759;34;20206;-59
2021/01/16 02:30:38;;;;;;;11.25;7.00;;;;;;;;;;4192753;34;20114;-59
2021/01/16 02:33:05;;;;;;;13.18;7.43;;;;;;;;;;4205685;34;20498;-60
2021/01/16 02:35:31;;;;;;;11.45;7.57;;;;;;;;;;4205577;34;20102;-59
2021/01/16 02:38:22;;;;;;;9.48;7.15;;;;;;;;;;4205800;34;20121;-58
2021/01/16 02:40:54;;;;;;;9.70;7.07;;;;;;;;;;4181538;34;20137;-59
2021/01/16 02:43:31;;;;;;;9.38;6.95;;;;;;;;;;4180711;34;20216;-59
2021/01/16 02:46:03;;;;;;;12.50;7.22;;;;;;;;;;4192986;34;20116;-59
2021/01/16 02:48:39;;;;;;;13.68;7.47;;;;;;;;;;4205810;34;20200;-59
2021/01/16 02:51:05;;;;;;;9.68;7.43;;;;;;;;;;4182289;34;20573;-59
2021/01/16 02:53:34;;;;;;;15.35;7.97;;;;;;;;;;4181305;34;20599;-59
2021/01/16 02:56:06;;;;;;;11.25;8.07;;;;;;;;;;4181282;34;20133;-59
2021/01/16 02:58:32;;;;;;;11.85;7.90;;;;;;;;;;4193460;34;20114;-59
2021/01/16 03:00:58;;;;;;;10.45;7.53;;;;;;;;;;4181159;34;20116;-59
2021/01/16 03:03:24;;;;;;;10.63;7.35;;;;;;;;;;4205296;34;20214;-58
2021/01/16 03:05:50;;;;;;;15.75;7.30;;;;;;;;;;4205292;34;20122;-59
2021/01/16 03:08:16;;;;;;;13.82;7.85;;;;;;;;;;4205448;34;20644;-59
2021/01/16 03:10:41;;;;;;;12.45;7.40;;;;;;;;;;4192400;34;20116;-58
2021/01/16 03:13:07;;;;;;;9.68;7.25;;;;;;;;;;4192433;34;20499;-59
2021/01/16 03:15:33;;;;;;;11.85;7.22;;;;;;;;;;4180916;34;20525;-59
2021/01/16 03:17:59;;;;;;;12.73;7.85;;;;;;;;;;4205493;34;20112;-59
2021/01/16 03:20:29;;;;;;;10.32;7.22;;;;;;;;;;4205193;34;20217;-59
2021/01/16 03:23:04;;;;;;;13.75;7.80;;;;;;;;;;4205401;34;20209;-59
2021/01/16 03:25:31;;;;;;;16.48;8.18;;;;;;;;;;4205133;34;20106;-59
2021/01/16 03:27:57;;;;;;;10.18;7.55;;;;;;;;;;4205237;34;20118;-58
2021/01/16 03:30:23;;;;;;;13.27;8.25;;;;;;;;;;4205341;34;20238;-59
2021/01/16 03:32:50;;;;;;;12.02;7.35;;;;;;;;;;4205066;34;20229;-59
2021/01/16 03:35:17;;;;;;;13.23;7.37;;;;;;;;;;4205393;34;20209;-59
2021/01/16 03:37:49;;;;;;;12.77;7.47;;;;;;;;;;4205113;34;20096;-59
2021/01/16 03:40:19;;;;;;;13.13;8.18;;;;;;;;;;4204977;34;20504;-59
2021/01/16 03:42:45;;;;;;;12.00;8.02;;;;;;;;;;4205183;34;20462;-59
2021/01/16 03:45:13;;;;;;;15.02;7.78;;;;;;;;;;4204987;34;20140;-57
2021/01/16 03:47:39;;;;;;;14.52;7.78;;;;;;;;;;4205086;34;20486;-59
2021/01/16 03:50:06;;;;;;;11.73;7.95;;;;;;;;;;4204830;34;20153;-59
2021/01/16 03:52:36;;;;;;;17.60;7.25;;;;;;;;;;4192428;34;20096;-58
2021/01/16 03:55:03;;;;;;;11.98;7.43;;;;;;;;;;4204691;34;20113;-59
2021/01/16 03:57:29;;;;;;;12.77;8.30;;;;;;;;;;4204960;34;20149;-57
2021/01/16 03:59:55;;;;;;;11.95;7.03;;;;;;;;;;4204906;34;20578;-58
2021/01/16 04:02:21;;;;;;;9.68;6.75;;;;;;;;;;4204814;34;20104;-57
2021/01/16 04:04:47;;;;;;;11.07;7.37;;;;;;;;;;4204799;34;20201;-58
2021/01/16 04:07:13;;;;;;;12.57;7.65;;;;;;;;;;4205200;34;20190;-59
2021/01/16 04:09:42;;;;;;;13.15;7.50;;;;;;;;;;4204773;34;20133;-58
2021/01/16 04:12:08;;;;;;;12.82;9.13;;;;;;;;;;4204991;34;20129;-58
2021/01/16 04:14:34;;;;;;;11.85;7.18;;;;;;;;;;4204760;34;20541;-58
2021/01/16 04:17:04;;;;;;;14.10;7.60;;;;;;;;;;4204798;34;20140;-58
2021/01/16 04:19:30;;;;;;;12.13;7.50;;;;;;;;;;4204715;34;20129;-59
2021/01/16 04:21:55;;;;;;;12.70;7.10;;;;;;;;;;4204601;34;20115;-58
2021/01/16 04:24:21;;;;;;;9.95;7.57;;;;;;;;;;4204621;34;20113;-58
2021/01/16 04:26:49;;;;;;;11.15;7.45;;;;;;;;;;4204592;34;20118;-57
2021/01/16 04:29:15;;;;;;;13.80;7.62;;;;;;;;;;4204604;34;21683;-60
2021/01/16 04:31:41;;;;;;;14.23;7.50;;;;;;;;;;4204560;34;20576;-60
2021/01/16 04:34:07;;;;;;;12.75;7.72;;;;;;;;;;4204377;34;20524;-60
2021/01/16 04:36:33;;;;;;;13.02;8.35;;;;;;;;;;4204436;34;20113;-59
2021/01/16 04:38:59;;;;;;;11.98;8.35;;;;;;;;;;4204181;34;20117;-60
2021/01/16 04:41:25;;;;;;;9.45;7.25;;;;;;;;;;4191661;34;20094;-60
2021/01/16 04:43:53;;;;;;;11.48;7.65;;;;;;;;;;4204278;34;20106;-60
2021/01/16 04:46:26;;;;;;;12.75;8.82;;;;;;;;;;4204650;34;20109;-59
2021/01/16 04:48:58;;;;;;;10.82;8.15;;;;;;;;;;4204410;34;20101;-60
2021/01/16 04:51:24;;;;;;;12.65;8.38;;;;;;;;;;4191574;34;20198;-59
2021/01/16 04:53:50;;;;;;;9.48;7.45;;;;;;;;;;4204113;34;20185;-59
2021/01/16 04:56:16;;;;;;;11.93;8.50;;;;;;;;;;4180143;34;20110;-59
2021/01/16 04:58:42;;;;;;;9.02;7.62;;;;;;;;;;4191229;34;20541;-59
2021/01/16 05:01:09;;;;;;;11.40;7.97;;;;;;;;;;4204290;34;20479;-58
2021/01/16 05:03:41;;;;;;;11.57;7.65;;;;;;;;;;4203857;34;20213;-57
2021/01/16 05:06:09;;;;;;;11.48;8.38;;;;;;;;;;4204466;34;20592;-58
2021/01/16 05:08:39;;;;;;;11.10;8.00;;;;;;;;;;4206227;34;20553;-59
2021/01/16 05:11:06;;;;;;;10.35;7.62;;;;;;;;;;4206284;34;20117;-58
2021/01/16 05:13:41;;;;;;;11.85;8.05;;;;;;;;;;4206581;34;20216;-59
2021/01/16 05:16:06;;;;;;;10.20;7.78;;;;;;;;;;4206261;34;20121;-58
2021/01/16 05:18:33;;;;;;;17.98;7.90;;;;;;;;;;4193280;34;20236;-59
2021/01/16 05:20:59;;;;;;;12.07;7.95;;;;;;;;;;4182364;34;20097;-58
2021/01/16 05:23:25;;;;;;;11.05;7.82;;;;;;;;;;4182001;34;20175;-58
2021/01/16 05:25:52;;;;;;;11.15;7.70;;;;;;;;;;4206081;34;20125;-59
2021/01/16 05:28:21;;;;;;;13.48;8.30;;;;;;;;;;4206172;34;20097;-59
2021/01/16 05:30:51;;;;;;;18.60;7.85;;;;;;;;;;4206081;34;20101;-59
2021/01/16 05:33:18;;;;;;;11.63;8.38;;;;;;;;;;4206467;34;20485;-58
2021/01/16 05:35:44;;;;;;;10.32;7.12;;;;;;;;;;4206027;34;20137;-58
2021/01/16 05:38:14;;;;;;;10.43;7.70;;;;;;;;;;4205943;34;20633;-58
2021/01/16 05:40:40;;;;;;;12.27;7.22;;;;;;;;;;4205931;34;20286;-59
2021/01/16 05:43:06;;;;;;;10.45;7.25;;;;;;;;;;4193278;34;20134;-58
2021/01/16 05:45:34;;;;;;;9.13;7.10;;;;;;;;;;4181767;34;20141;-58
2021/01/16 05:48:03;;;;;;;10.52;7.72;;;;;;;;;;4205938;34;20098;-58
2021/01/16 05:50:29;;;;;;;12.90;8.05;;;;;;;;;;4205896;34;20129;-59
2021/01/16 05:52:55;;;;;;;8.45;7.18;;;;;;;;;;4205914;34;20244;-59
2021/01/16 05:55:21;;;;;;;10.50;7.37;;;;;;;;;;4205765;34;20582;-58
2021/01/16 05:57:47;;;;;;;12.10;8.30;;;;;;;;;;4181729;34;20110;-58
2021/01/16 06:00:24;;;;;;;12.10;7.70;;;;;;;;;;4193233;34;20477;-59
2021/01/16 06:02:51;;;;;;;12.95;8.02;;;;;;;;;;4192792;34;20109;-58
2021/01/16 06:05:24;;;;;;;11.40;8.25;;;;;;;;;;4205605;34;20113;-59
2021/01/16 06:07:53;;;;;;;9.98;7.07;;;;;;;;;;4205818;34;20550;-58
2021/01/16 06:10:20;;;;;;;10.57;7.12;;;;;;;;;;4206066;34;20102;-58
2021/01/16 06:12:50;;;;;;;9.52;7.50;;;;;;;;;;4206085;34;20102;-60
2021/01/16 06:15:17;;;;;;;11.30;7.87;;;;;;;;;;4192916;34;20125;-59
2021/01/16 06:17:48;;;;;;;10.43;7.22;;;;;;;;;;4205654;34;20094;-58
2021/01/16 06:20:18;;;;;;;11.20;7.68;;;;;;;;;;4205849;34;20117;-58
2021/01/16 06:22:44;;;;;;;12.32;7.97;;;;;;;;;;4193491;34;20097;-58
2021/01/16 06:25:20;;;;;;;9.57;7.68;;;;;;;;;;4205600;34;20114;-59
2021/01/16 06:27:47;;;;;;;10.75;7.55;;;;;;;;;;4205766;34;20113;-59
2021/01/16 06:30:14;;;;;;;24.05;9.05;;;;;;;;;;4205771;34;20121;-60
2021/01/16 06:32:51;;;;;;;12.80;8.52;;;;;;;;;;4205889;34;20117;-59
2021/01/16 06:35:18;;;;;;;11.73;8.35;;;;;;;;;;4205711;34;20104;-60
2021/01/16 06:37:48;;;;;;;12.70;8.05;;;;;;;;;;4205674;34;20124;-59
2021/01/16 06:40:26;;;;;;;10.55;8.60;;;;;;;;;;4205593;34;20133;-59
2021/01/16 06:42:52;;;;;;;10.70;8.73;;;;;;;;;;4205711;34;20213;-58
2021/01/16 06:45:22;;;;;;;11.43;8.73;;;;;;;;;;4192742;34;20548;-59
2021/01/16 06:47:47;;;;;;;12.93;9.98;;;;;;;;;;4192760;34;20432;-59
2021/01/16 06:50:13;;;;;;;15.35;10.30;;;;;;;;;;4181220;34;20109;-59
2021/01/16 06:52:40;;;;;;;17.25;10.43;;;;;;;;;;4181478;34;20121;-59
2021/01/16 06:55:07;;;;;;;13.10;9.75;;;;;;;;;;4205341;34;20121;-60
2021/01/16 06:57:34;;;;;;;13.23;10.48;;;;;;;;;;4204952;34;20214;-60
2021/01/16 07:00:06;;;;;;;16.77;10.55;;;;;;;;;;4195454;34;20113;-60
2021/01/16 07:02:36;;;;;;;14.75;10.13;;;;;;;;;;4193017;34;20455;-58
2021/01/16 07:05:22;;;;;;;14.57;10.88;;;;;;;;;;4204988;34;20118;-56
2021/01/16 07:07:51;;;;;;;16.27;10.40;;;;;;;;;;4215347;34;20473;-59
2021/01/16 07:10:21;;;;;;;15.40;11.00;;;;;;;;;;4218466;33;20105;-60
2021/01/16 07:12:51;;;;;;;15.18;10.77;;;;;;;;;;4218522;34;20101;-59
2021/01/16 07:15:18;;;;;;;18.12;11.85;;;;;;;;;;4214055;33;20113;-60
2021/01/16 07:17:45;;;;;;;13.40;10.48;;;;;;;;;;4204597;34;20114;-58
2021/01/16 07:20:11;;;;;;;12.25;10.30;;;;;;;;;;4191652;34;20135;-57
2021/01/16 07:22:40;;;;;;;11.73;9.38;;;;;;;;;;4204742;34;20466;-58
2021/01/16 07:25:07;;;;;;;14.20;10.80;;;;;;;;;;4204629;34;20510;-58
2021/01/16 07:27:33;;;;;;;15.60;10.95;;;;;;;;;;4204521;34;20133;-58
2021/01/16 07:30:00;;;;;;;14.00;10.82;;;;;;;;;;4190979;34;20117;-57
2021/01/16 07:32:42;;;;;;;14.75;11.38;;;;;;;;;;4209986;34;20104;-57
2021/01/16 07:35:09;;;;;;;15.23;10.55;;;;;;;;;;4218525;33;20109;-58
2021/01/16 07:37:35;;;;;;;15.77;10.48;;;;;;;;;;4218679;34;20113;-59
2021/01/16 07:40:01;;;;;;;15.23;9.60;;;;;;;;;;4205580;34;20112;-55
2021/01/16 07:42:27;;;;;;;15.80;10.05;;;;;;;;;;4205491;34;20113;-56
2021/01/16 07:45:10;;;;;;;15.57;10.25;;;;;;;;;;4218218;33;20113;-56
2021/01/16 07:47:39;;;;;;;17.60;10.65;;;;;;;;;;4218529;34;20442;-53
2021/01/16 07:50:06;;;;;;;12.10;9.55;;;;;;;;;;4218176;33;20565;-58
2021/01/16 07:52:31;;;;;;;17.08;10.23;;;;;;;;;;4205531;34;20120;-59
2021/01/16 07:55:05;;;;;;;15.40;9.55;;;;;;;;;;4193749;34;20113;-60
2021/01/16 07:57:32;;;;;;;18.35;9.07;;;;;;;;;;4218355;34;20125;-60
2021/01/16 08:00:07;;;;;;;16.48;10.27;;;;;;;;;;4213157;33;20098;-60
2021/01/16 08:02:49;;;;;;;15.18;10.25;;;;;;;;;;4192134;34;20121;-60
2021/01/16 08:05:20;;;;;;;14.57;9.32;;;;;;;;;;4180863;34;20519;-59
2021/01/16 08:08:18;;;;;;;19.48;10.27;;;;;;;;;;4204802;34;20130;-59
2021/01/16 08:10:44;;;;;;;16.37;9.98;;;;;;;;;;4191982;34;20534;-57
2021/01/16 08:13:11;;;;;;;13.20;9.25;;;;;;;;;;4204677;34;20101;-57
2021/01/16 08:15:40;;;;;;;16.48;9.50;;;;;;;;;;4204618;34;20133;-58
2021/01/16 08:18:17;;;;;;;11.90;9.52;;;;;;;;;;4204369;34;20130;-57
2021/01/16 08:20:43;;;;;;;12.75;9.80;;;;;;;;;;4192704;34;20145;-58
2021/01/16 08:23:10;;;;;;;12.70;10.20;;;;;;;;;;4180331;34;20458;-58
2021/01/16 08:25:36;;;;;;;19.65;13.40;;;;;;;;;;4204593;34;20473;-59
2021/01/16 08:28:04;;;;;;;11.15;9.07;;;;;;;;;;4204547;34;20091;-58
2021/01/16 08:30:32;;;;;;;12.23;9.40;;;;;;;;;;4204724;34;20106;-58
2021/01/16 08:33:07;;;;;;;10.15;8.32;;;;;;;;;;4204592;34;20136;-59
2021/01/16 08:35:39;;;;;;;12.43;9.90;;;;;;;;;;4205004;34;20104;-58
2021/01/16 08:38:17;;;;;;;10.20;7.87;;;;;;;;;;4204569;34;20109;-58
2021/01/16 08:41:03;;;;;;;11.63;9.07;;;;;;;;;;4203743;34;20106;-56
2021/01/16 08:43:36;;;;;;;13.10;9.75;;;;;;;;;;4204458;34;20095;-57
2021/01/16 08:46:08;;;;;;;11.65;9.20;;;;;;;;;;4204463;34;20199;-58
2021/01/16 08:48:35;;;;;;;11.18;7.80;;;;;;;;;;4204384;34;20114;-57
2021/01/16 08:51:00;;;;;;;8.90;7.62;;;;;;;;;;4204324;34;20505;-58
2021/01/16 08:53:26;;;;;;;14.70;11.25;;;;;;;;;;4204370;34;20102;-58
2021/01/16 08:55:52;;;;;;;12.27;9.68;;;;;;;;;;4191635;34;20119;-58
2021/01/16 08:58:18;;;;;;;11.25;8.68;;;;;;;;;;4204355;34;20102;-58
2021/01/16 09:00:44;;;;;;;9.80;8.68;;;;;;;;;;4204240;34;20461;-58
2021/01/16 09:03:16;;;;;;;10.88;8.27;;;;;;;;;;4204215;34;20367;-57
2021/01/16 09:05:42;;;;;;;13.77;9.23;;;;;;;;;;4204120;34;20121;-58
2021/01/16 09:08:22;;;;;;;11.48;10.15;;;;;;;;;;4204224;34;20209;-57
2021/01/16 09:10:48;;;;;;;11.45;10.10;;;;;;;;;;4204100;34;20186;-57
2021/01/16 09:13:42;;;;;;;12.37;10.32;;;;;;;;;;4191706;34;20114;-58
2021/01/16 09:16:28;;;;;;;13.52;10.98;;;;;;;;;;4203401;34;20118;-57
2021/01/16 09:18:54;;;;;;;13.05;11.63;;;;;;;;;;4193429;34;20451;-58
2021/01/16 09:21:24;;;;;;;14.23;12.50;;;;;;;;;;4191513;34;20271;-58
2021/01/16 09:23:50;;;;;;;16.30;14.07;;;;;;;;;;4191099;34;20105;-58
2021/01/16 09:26:20;;;;;;;16.58;14.85;;;;;;;;;;4204287;34;20502;-58
2021/01/16 09:28:50;;;;;;;14.00;11.73;;;;;;;;;;4203999;34;20198;-57
2021/01/16 09:31:24;;;;;;;15.13;13.25;;;;;;;;;;4204017;34;20110;-58
2021/01/16 09:33:51;;;;;;;14.65;12.13;;;;;;;;;;4203937;34;20457;-58
2021/01/16 09:36:47;;;;;;;16.95;14.55;;;;;;;;;;4203902;34;20097;-57
2021/01/16 09:39:24;;;;;;;15.50;13.83;;;;;;;;;;4189983;34;20432;-57
2021/01/16 09:41:55;;;;;;;20.23;17.98;;;;;;;;;;4204213;34;20126;-57
2021/01/16 09:44:47;;;;;;;18.67;14.45;;;;;;;;;;4203829;34;20114;-57
2021/01/16 09:47:28;;;;;;;20.83;16.42;;;;;;;;;;4201880;34;20192;-57
2021/01/16 09:50:00;;;;;;;16.37;13.30;;;;;;;;;;4204072;34;20273;-57
2021/01/16 09:52:27;;;;;;;14.52;13.02;;;;;;;;;;4204704;34;20113;-58
2021/01/16 09:54:53;;;;;;;16.55;14.65;;;;;;;;;;4206023;34;20306;-57
2021/01/16 09:57:40;;;;;;;15.98;14.25;;;;;;;;;;4206238;34;20165;-57
2021/01/16 10:00:26;;;;;;;15.52;13.20;;;;;;;;;;4205804;34;20129;-57
2021/01/16 10:03:14;;;;;;;17.00;13.73;;;;;;;;;;4205790;34;20117;-59
2021/01/16 10:05:41;;;;;;;16.55;13.35;;;;;;;;;;4205726;34;20125;-57
2021/01/16 10:08:07;;;;;;;15.90;14.20;;;;;;;;;;4205941;34;20513;-58
2021/01/16 10:10:50;;;;;;;18.50;14.40;;;;;;;;;;4192933;34;20121;-58
2021/01/16 10:13:38;;;;;;;14.82;12.82;;;;;;;;;;4205934;34;20138;-57
2021/01/16 10:16:08;;;;;;;14.98;13.30;;;;;;;;;;4205996;34;20129;-57
2021/01/16 10:18:35;;;;;;;15.45;13.85;;;;;;;;;;4205670;34;20146;-58
2021/01/16 10:21:08;;;;;;;16.70;13.85;;;;;;;;;;4205887;34;20106;-58
2021/01/16 10:23:35;;;;;;;19.17;15.82;;;;;;;;;;4205839;34;20097;-56
2021/01/16 10:26:12;;;;;;;18.45;14.07;;;;;;;;;;4205933;34;20537;-57
2021/01/16 10:29:07;;;;;;;18.42;14.07;;;;;;;;;;4205680;34;20194;-57
2021/01/16 10:31:45;;;;;;;16.85;13.10;;;;;;;;;;4187115;34;20186;-58
2021/01/16 10:34:16;;;;;;;19.42;15.30;;;;;;;;;;4182904;34;20534;-56
2021/01/16 10:36:42;;;;;;;16.05;13.90;;;;;;;;;;4205729;34;20090;-56
2021/01/16 10:39:12;;;;;;;18.33;14.80;;;;;;;;;;4205588;34;20171;-56
2021/01/16 10:41:39;;;;;;;23.50;18.30;;;;;;;;;;4205700;34;20116;-57
2021/01/16 10:44:17;;;;;;;23.30;19.23;;;;;;;;;;4205429;34;20535;-57
2021/01/16 10:46:53;;;;;;;18.50;16.50;;;;;;;;;;4192718;34;20551;-57
2021/01/16 10:49:18;;;;;;;;;;;;;;;;;;4205834;34;20122;-57
2021/01/16 10:51:48;;;;;;;20.52;17.30;;;;;;;;;;4205520;34;20085;-57
2021/01/16 10:54:14;;;;;;;17.98;16.10;;;;;;;;;;4205412;34;20519;-56
2021/01/16 10:56:43;;;;;;;19.25;15.20;;;;;;;;;;4205700;34;20094;-57
2021/01/16 10:59:09;;;;;;;18.15;15.38;;;;;;;;;;4205228;34;20239;-56
2021/01/16 11:01:48;;;;;;;18.92;16.92;;;;;;;;;;4205397;34;20217;-57
2021/01/16 11:04:17;;;;;;;19.30;15.57;;;;;;;;;;4204562;34;20097;-58
2021/01/16 11:06:47;;;;;;;17.75;15.73;;;;;;;;;;4205280;34;20527;-57
2021/01/16 11:09:33;;;;;;;17.05;15.20;;;;;;;;;;4205430;34;20174;-57
2021/01/16 11:12:03;;;;;;;19.37;15.82;;;;;;;;;;4205357;34;20106;-57
2021/01/16 11:14:36;;;;;;;19.08;16.40;;;;;;;;;;4205125;34;20097;-57
2021/01/16 11:17:02;;;;;;;18.62;15.48;;;;;;;;;;4205296;34;20197;-57
2021/01/16 11:19:37;;;;;;;19.20;15.50;;;;;;;;;;4205556;34;20105;-58
2021/01/16 11:22:07;;;;;;;18.02;14.38;;;;;;;;;;4205271;34;20124;-57
2021/01/16 11:24:35;;;;;;;18.85;16.17;;;;;;;;;;4205284;34;20114;-57
2021/01/16 11:27:08;;;;;;;18.77;16.80;;;;;;;;;;4205189;34;20217;-58
2021/01/16 11:29:44;;;;;;;18.37;15.82;;;;;;;;;;4192360;34;20134;-58
2021/01/16 11:32:20;;;;;;;18.10;15.30;;;;;;;;;;4205207;34;20110;-58
2021/01/16 11:35:11;;;;;;;17.58;15.55;;;;;;;;;;4205357;34;20124;-57
2021/01/16 11:37:49;;;;;;;17.42;15.55;;;;;;;;;;4205242;34;20096;-57
2021/01/16 11:40:22;;;;;;;16.92;14.45;;;;;;;;;;4205064;34;20104;-58
2021/01/16 11:42:52;;;;;;;18.62;14.95;;;;;;;;;;4204907;34;20106;-57
2021/01/16 11:45:18;;;;;;;17.42;14.93;;;;;;;;;;4205130;34;20134;-57
2021/01/16 11:47:54;;;;;;;17.05;14.38;;;;;;;;;;4204962;34;20127;-57
2021/01/16 11:50:21;;;;;;;16.67;14.90;;;;;;;;;;4204873;34;20126;-57
2021/01/16 11:52:47;;;;;;;18.98;15.68;;;;;;;;;;4205217;34;20144;-57
2021/01/16 11:55:13;;;;;;;16.23;13.60;;;;;;;;;;4204779;34;20122;-58
2021/01/16 11:57:40;;;;;;;20.85;14.40;;;;;;;;;;4204863;34;20120;-58
2021/01/16 12:00:06;;;;;;;17.05;15.27;;;;;;;;;;4192003;34;20486;-57
2021/01/16 12:02:32;;;;;;;16.58;14.20;;;;;;;;;;4204884;34;20543;-57
2021/01/16 12:04:58;;;;;;;15.63;13.90;;;;;;;;;;4191576;34;20114;-58
2021/01/16 12:07:25;;;;;;;16.05;14.23;;;;;;;;;;4204970;34;20121;-58
2021/01/16 12:09:51;;;;;;;16.23;14.50;;;;;;;;;;4204888;34;20113;-58
2021/01/16 12:12:17;;;;;;;15.38;13.88;;;;;;;;;;4192067;34;20103;-57
2021/01/16 12:14:43;;;;;;;13.95;12.25;;;;;;;;;;4204445;34;20121;-60
2021/01/16 12:17:15;;;;;;;17.50;14.40;;;;;;;;;;4205106;34;20094;-58
2021/01/16 12:19:41;;;;;;;16.98;15.18;;;;;;;;;;4205059;34;20156;-57
2021/01/16 12:22:08;;;;;;;16.27;13.62;;;;;;;;;;4204669;34;20617;-59
2021/01/16 12:24:35;;;;;;;12.85;11.45;;;;;;;;;;4204640;34;20106;-59
2021/01/16 12:27:02;;;;;;;13.60;12.27;;;;;;;;;;4204619;34;20232;-59
2021/01/16 12:29:38;;;;;;;13.50;11.60;;;;;;;;;;4204940;34;20173;-59
2021/01/16 12:32:07;;;;;;;12.30;10.40;;;;;;;;;;4204965;34;20117;-59
2021/01/16 12:34:33;;;;;;;12.02;10.27;;;;;;;;;;4204706;34;20190;-57
2021/01/16 12:36:59;;;;;;;14.30;12.82;;;;;;;;;;4204550;34;20121;-58
2021/01/16 12:39:26;;;;;;;11.90;10.70;;;;;;;;;;4204473;34;20124;-58
2021/01/16 12:41:57;;;;;;;13.40;11.43;;;;;;;;;;4204532;34;20518;-57
2021/01/16 12:44:23;;;;;;;10.73;9.63;;;;;;;;;;4204521;34;20563;-58
2021/01/16 12:46:51;;;;;;;10.60;9.45;;;;;;;;;;4204472;34;20118;-59
2021/01/16 12:49:18;;;;;;;10.82;8.95;;;;;;;;;;4191685;34;20526;-59
2021/01/16 12:51:44;;;;;;;13.85;9.65;;;;;;;;;;4191710;34;20098;-59
2021/01/16 12:54:16;;;;;;;12.52;8.70;;;;;;;;;;4191377;34;20182;-58
2021/01/16 12:56:43;;;;;;;9.75;8.75;;;;;;;;;;4204388;34;20194;-58
2021/01/16 12:59:18;;;;;;;11.90;9.52;;;;;;;;;;4204147;34;20117;-58
2021/01/16 13:01:48;;;;;;;11.23;9.73;;;;;;;;;;4204325;34;20122;-58
2021/01/16 13:04:15;;;;;;;11.23;8.95;;;;;;;;;;4191447;34;20202;-58
2021/01/16 13:06:41;;;;;;;10.13;9.13;;;;;;;;;;4204232;34;20102;-59
2021/01/16 13:09:07;;;;;;;9.90;8.90;;;;;;;;;;4204149;34;20133;-57
2021/01/16 13:11:33;;;;;;;11.07;9.15;;;;;;;;;;4180257;34;20108;-58
2021/01/16 13:14:00;;;;;;;11.75;10.57;;;;;;;;;;4191045;34;20109;-57
2021/01/16 13:16:29;;;;;;;12.00;9.50;;;;;;;;;;4204227;34;20110;-58
2021/01/16 13:18:58;;;;;;;10.68;8.68;;;;;;;;;;4204091;34;20132;-58
2021/01/16 13:21:31;;;;;;;10.38;9.27;;;;;;;;;;4204163;34;20129;-58
2021/01/16 13:23:57;;;;;;;9.10;7.75;;;;;;;;;;4203841;34;20118;-58
2021/01/16 13:26:23;;;;;;;13.10;9.63;;;;;;;;;;4204031;34;20121;-58
2021/01/16 13:28:51;;;;;;;9.05;8.10;;;;;;;;;;4193132;34;20225;-59
2021/01/16 13:31:19;;;;;;;9.80;8.82;;;;;;;;;;4193449;34;20122;-58
2021/01/16 13:33:52;;;;;;;9.45;8.43;;;;;;;;;;4206147;34;20086;-58
2021/01/16 13:36:24;;;;;;;8.23;7.30;;;;;;;;;;4205929;34;20542;-59
2021/01/16 13:38:50;;;;;;;9.90;8.18;;;;;;;;;;4206043;34;20133;-58
2021/01/16 13:41:16;;;;;;;10.75;9.75;;;;;;;;;;4206161;34;20118;-58
2021/01/16 13:43:44;;;;;;;14.68;9.05;;;;;;;;;;4205859;34;20109;-58
2021/01/16 13:46:10;;;;;;;9.27;8.38;;;;;;;;;;4205923;34;20106;-57
2021/01/16 13:48:37;;;;;;;9.98;8.23;;;;;;;;;;4205996;34;20174;-58
2021/01/16 13:51:19;;;;;;;10.75;8.98;;;;;;;;;;4205828;34;20143;-58
2021/01/16 13:53:52;;;;;;;10.40;9.35;;;;;;;;;;4205947;34;20659;-58
2021/01/16 13:56:19;;;;;;;11.55;10.07;;;;;;;;;;4205890;34;20105;-56
2021/01/16 13:58:46;;;;;;;9.63;8.57;;;;;;;;;;4205836;34;20157;-56
2021/01/16 14:01:12;;;;;;;11.63;9.52;;;;;;;;;;4205846;34;20196;-57
2021/01/16 14:03:38;;;;;;;10.30;9.23;;;;;;;;;;4205806;34;20495;-57
2021/01/16 14:06:04;;;;;;;10.93;9.88;;;;;;;;;;4192953;34;20222;-57
2021/01/16 14:08:30;;;;;;;13.25;11.85;;;;;;;;;;4193116;34;20118;-58
2021/01/16 14:11:00;;;;;;;11.85;10.52;;;;;;;;;;4205942;34;20125;-59
2021/01/16 14:13:36;;;;;;;12.25;10.45;;;;;;;;;;4205796;34;20105;-59
2021/01/16 14:16:07;;;;;;;13.15;11.05;;;;;;;;;;4193828;34;20546;-60
2021/01/16 14:18:35;;;;;;;12.20;11.00;;;;;;;;;;4205890;34;20118;-58
2021/01/16 14:21:12;;;;;;;14.02;10.32;;;;;;;;;;4192918;34;20594;-57
2021/01/16 14:23:38;;;;;;;13.15;11.75;;;;;;;;;;4205789;34;20088;-58
2021/01/16 14:26:18;;;;;;;15.68;11.18;;;;;;;;;;4205614;34;20213;-57
2021/01/16 14:28:45;;;;;;;11.85;10.65;;;;;;;;;;4205710;34;20106;-57
2021/01/16 14:31:13;;;;;;;12.52;11.25;;;;;;;;;;4205574;34;20113;-57
2021/01/16 14:33:39;;;;;;;13.27;11.50;;;;;;;;;;4205547;34;20105;-60
2021/01/16 14:36:17;;;;;;;12.80;11.50;;;;;;;;;;4192960;34;20121;-58
2021/01/16 14:38:43;;;;;;;17.20;14.63;;;;;;;;;;4205411;34;20100;-58
2021/01/16 14:41:09;;;;;;;13.13;11.73;;;;;;;;;;4205409;34;20102;-58
2021/01/16 14:43:35;;;;;;;13.73;12.13;;;;;;;;;;4205226;34;20153;-58